sensor_id;sensor_type;location;lat;lon;timestamp;P1;durP1;ratioP1;P2;durP2;ratioP2
75851;SDS011;64500;52.632;20.656;2022-11-27T00:01:22;77.20;;;30.30;;
75851;SDS011;64500;52.632;20.656;2022-11-27T00:03:55;78.70;;;30.90;;
75851;SDS011;64500;52.632;20.656;2022-11-27T00:06:23;72.90;;;31.00;;
75851;SDS011;64500;52.632;20.656;2022-11-27T00:08:54;75.40;;;31.30;;
75851;SDS011;64500;52.632;20.656;2022-11-27T00:11:23;78.20;;;32.90;;
75851;SDS011;64500;52.632;20.656;2022-11-27T00:13:51;81.40;;;32.00;;
75851;SDS011;64500;52.632;20.656;2022-11-27T00:16:19;82.50;;;33.50;;
75851;SDS011;64500;52.632;20.656;2022-11-27T00:18:47;81.60;;;34.00;;
75851;SDS011;64500;52.632;20.656;2022-11-27T00:21:16;85.20;;;32.90;;
75851;SDS011;64500;52.632;20.656;2022-11-27T00:23:48;82.60;;;33.10;;
75851;SDS011;64500;52.632;20.656;2022-11-27T00:26:16;85.70;;;33.00;;
75851;SDS011;64500;52.632;20.656;2022-11-27T00:28:43;88.10;;;33.30;;
75851;SDS011;64500;52.632;20.656;2022-11-27T00:31:17;84.60;;;37.10;;
75851;SDS011;64500;52.632;20.656;2022-11-27T00:33:47;85.30;;;33.10;;
75851;SDS011;64500;52.632;20.656;2022-11-27T00:36:14;86.30;;;35.40;;
75851;SDS011;64500;52.632;20.656;2022-11-27T00:38:42;91.00;;;34.60;;
75851;SDS011;64500;52.632;20.656;2022-11-27T00:41:14;84.20;;;33.90;;
75851;SDS011;64500;52.632;20.656;2022-11-27T00:43:46;86.60;;;33.80;;
75851;SDS011;64500;52.632;20.656;2022-11-27T00:46:14;88.90;;;34.50;;
75851;SDS011;64500;52.632;20.656;2022-11-27T00:48:42;88.20;;;33.20;;
75851;SDS011;64500;52.632;20.656;2022-11-27T00:51:11;84.80;;;34.20;;
75851;SDS011;64500;52.632;20.656;2022-11-27T00:53:40;83.30;;;34.80;;
75851;SDS011;64500;52.632;20.656;2022-11-27T00:56:10;85.70;;;35.60;;
75851;SDS011;64500;52.632;20.656;2022-11-27T00:58:45;85.70;;;34.80;;
75851;SDS011;64500;52.632;20.656;2022-11-27T01:01:14;84.80;;;34.60;;
75851;SDS011;64500;52.632;20.656;2022-11-27T01:03:46;87.70;;;33.50;;
75851;SDS011;64500;52.632;20.656;2022-11-27T01:06:14;82.20;;;34.80;;
75851;SDS011;64500;52.632;20.656;2022-11-27T01:08:42;89.90;;;33.70;;
75851;SDS011;64500;52.632;20.656;2022-11-27T01:11:12;81.00;;;34.20;;
75851;SDS011;64500;52.632;20.656;2022-11-27T01:13:44;87.40;;;33.20;;
75851;SDS011;64500;52.632;20.656;2022-11-27T01:16:13;80.60;;;33.00;;
75851;SDS011;64500;52.632;20.656;2022-11-27T01:18:42;78.30;;;33.30;;
75851;SDS011;64500;52.632;20.656;2022-11-27T01:21:11;83.10;;;32.20;;
75851;SDS011;64500;52.632;20.656;2022-11-27T01:23:40;77.40;;;31.20;;
75851;SDS011;64500;52.632;20.656;2022-11-27T01:26:07;83.70;;;34.80;;
75851;SDS011;64500;52.632;20.656;2022-11-27T01:28:36;77.20;;;32.50;;
75851;SDS011;64500;52.632;20.656;2022-11-27T01:31:14;80.30;;;32.90;;
75851;SDS011;64500;52.632;20.656;2022-11-27T01:33:44;76.00;;;33.10;;
75851;SDS011;64500;52.632;20.656;2022-11-27T01:36:13;78.00;;;32.60;;
75851;SDS011;64500;52.632;20.656;2022-11-27T01:38:41;78.80;;;31.80;;
75851;SDS011;64500;52.632;20.656;2022-11-27T01:41:22;80.60;;;32.10;;
75851;SDS011;64500;52.632;20.656;2022-11-27T01:52:00;74.10;;;31.70;;
75851;SDS011;64500;52.632;20.656;2022-11-27T01:54:42;73.90;;;32.80;;
75851;SDS011;64500;52.632;20.656;2022-11-27T01:57:19;80.50;;;34.60;;
75851;SDS011;64500;52.632;20.656;2022-11-27T01:59:51;75.70;;;32.50;;
75851;SDS011;64500;52.632;20.656;2022-11-27T02:02:22;78.30;;;31.50;;
75851;SDS011;64500;52.632;20.656;2022-11-27T02:04:48;79.80;;;33.60;;
75851;SDS011;64500;52.632;20.656;2022-11-27T02:07:16;77.20;;;33.70;;
75851;SDS011;64500;52.632;20.656;2022-11-27T02:09:42;73.50;;;32.30;;
75851;SDS011;64500;52.632;20.656;2022-11-27T02:12:14;70.70;;;30.80;;
75851;SDS011;64500;52.632;20.656;2022-11-27T02:14:59;74.10;;;33.20;;
75851;SDS011;64500;52.632;20.656;2022-11-27T02:21:00;68.30;;;31.30;;
75851;SDS011;64500;52.632;20.656;2022-11-27T02:29:01;78.90;;;35.10;;
75851;SDS011;64500;52.632;20.656;2022-11-27T02:34:38;83.30;;;35.50;;
75851;SDS011;64500;52.632;20.656;2022-11-27T02:37:12;78.40;;;35.70;;
75851;SDS011;64500;52.632;20.656;2022-11-27T02:39:51;80.40;;;34.10;;
75851;SDS011;64500;52.632;20.656;2022-11-27T02:42:25;84.10;;;35.10;;
75851;SDS011;64500;52.632;20.656;2022-11-27T02:45:01;75.20;;;33.90;;
75851;SDS011;64500;52.632;20.656;2022-11-27T02:47:32;75.70;;;34.10;;
75851;SDS011;64500;52.632;20.656;2022-11-27T02:49:59;80.60;;;34.20;;
75851;SDS011;64500;52.632;20.656;2022-11-27T02:52:28;80.70;;;34.70;;
75851;SDS011;64500;52.632;20.656;2022-11-27T02:54:57;82.90;;;36.00;;
75851;SDS011;64500;52.632;20.656;2022-11-27T02:57:28;77.60;;;34.40;;
75851;SDS011;64500;52.632;20.656;2022-11-27T02:59:57;85.30;;;35.50;;
75851;SDS011;64500;52.632;20.656;2022-11-27T03:02:28;79.80;;;34.90;;
75851;SDS011;64500;52.632;20.656;2022-11-27T03:05:01;78.20;;;34.10;;
75851;SDS011;64500;52.632;20.656;2022-11-27T03:07:40;87.30;;;37.10;;
75851;SDS011;64500;52.632;20.656;2022-11-27T03:10:15;82.30;;;34.90;;
75851;SDS011;64500;52.632;20.656;2022-11-27T03:15:14;83.70;;;34.80;;
75851;SDS011;64500;52.632;20.656;2022-11-27T03:17:51;90.20;;;36.80;;
75851;SDS011;64500;52.632;20.656;2022-11-27T03:20:28;83.40;;;35.10;;
75851;SDS011;64500;52.632;20.656;2022-11-27T03:22:58;89.80;;;36.20;;
75851;SDS011;64500;52.632;20.656;2022-11-27T03:25:25;86.80;;;36.30;;
75851;SDS011;64500;52.632;20.656;2022-11-27T03:27:57;91.70;;;36.80;;
75851;SDS011;64500;52.632;20.656;2022-11-27T03:30:27;86.20;;;34.90;;
75851;SDS011;64500;52.632;20.656;2022-11-27T03:32:54;84.20;;;36.40;;
75851;SDS011;64500;52.632;20.656;2022-11-27T03:35:22;90.20;;;35.50;;
75851;SDS011;64500;52.632;20.656;2022-11-27T03:37:52;91.90;;;36.60;;
75851;SDS011;64500;52.632;20.656;2022-11-27T03:40:21;85.40;;;36.30;;
75851;SDS011;64500;52.632;20.656;2022-11-27T03:43:17;88.20;;;37.30;;
75851;SDS011;64500;52.632;20.656;2022-11-27T03:45:59;92.60;;;37.20;;
75851;SDS011;64500;52.632;20.656;2022-11-27T03:48:42;94.20;;;39.30;;
75851;SDS011;64500;52.632;20.656;2022-11-27T03:57:06;101.10;;;40.80;;
75851;SDS011;64500;52.632;20.656;2022-11-27T04:00:06;95.50;;;39.00;;
75851;SDS011;64500;52.632;20.656;2022-11-27T04:02:46;100.80;;;40.40;;
75851;SDS011;64500;52.632;20.656;2022-11-27T04:05:16;102.40;;;38.70;;
75851;SDS011;64500;52.632;20.656;2022-11-27T04:07:44;102.10;;;40.50;;
75851;SDS011;64500;52.632;20.656;2022-11-27T04:10:12;111.30;;;41.40;;
75851;SDS011;64500;52.632;20.656;2022-11-27T04:12:40;99.70;;;39.70;;
75851;SDS011;64500;52.632;20.656;2022-11-27T04:15:08;101.50;;;39.60;;
75851;SDS011;64500;52.632;20.656;2022-11-27T04:17:37;104.30;;;39.40;;
75851;SDS011;64500;52.632;20.656;2022-11-27T04:20:04;102.90;;;40.60;;
75851;SDS011;64500;52.632;20.656;2022-11-27T04:22:32;100.80;;;39.20;;
75851;SDS011;64500;52.632;20.656;2022-11-27T04:24:58;105.40;;;40.80;;
75851;SDS011;64500;52.632;20.656;2022-11-27T04:27:26;104.50;;;41.20;;
75851;SDS011;64500;52.632;20.656;2022-11-27T04:29:53;94.70;;;39.30;;
75851;SDS011;64500;52.632;20.656;2022-11-27T04:32:20;102.20;;;39.30;;
75851;SDS011;64500;52.632;20.656;2022-11-27T04:34:47;105.70;;;39.70;;
75851;SDS011;64500;52.632;20.656;2022-11-27T04:37:14;106.70;;;41.80;;
75851;SDS011;64500;52.632;20.656;2022-11-27T04:39:41;98.00;;;39.70;;
75851;SDS011;64500;52.632;20.656;2022-11-27T04:42:09;97.90;;;40.50;;
75851;SDS011;64500;52.632;20.656;2022-11-27T04:44:36;100.80;;;39.10;;
75851;SDS011;64500;52.632;20.656;2022-11-27T04:47:03;97.80;;;40.50;;
75851;SDS011;64500;52.632;20.656;2022-11-27T04:49:30;98.30;;;39.90;;
75851;SDS011;64500;52.632;20.656;2022-11-27T04:51:57;104.10;;;39.60;;
75851;SDS011;64500;52.632;20.656;2022-11-27T04:54:24;100.70;;;40.00;;
75851;SDS011;64500;52.632;20.656;2022-11-27T04:56:51;91.70;;;37.90;;
75851;SDS011;64500;52.632;20.656;2022-11-27T04:59:18;99.00;;;40.00;;
75851;SDS011;64500;52.632;20.656;2022-11-27T05:01:48;99.60;;;39.50;;
75851;SDS011;64500;52.632;20.656;2022-11-27T05:04:15;101.70;;;39.10;;
75851;SDS011;64500;52.632;20.656;2022-11-27T05:06:42;105.90;;;41.00;;
75851;SDS011;64500;52.632;20.656;2022-11-27T05:09:09;96.00;;;39.60;;
75851;SDS011;64500;52.632;20.656;2022-11-27T05:11:36;102.10;;;39.70;;
75851;SDS011;64500;52.632;20.656;2022-11-27T05:14:03;102.20;;;39.00;;
75851;SDS011;64500;52.632;20.656;2022-11-27T05:16:52;102.60;;;39.20;;
75851;SDS011;64500;52.632;20.656;2022-11-27T05:19:21;106.00;;;40.30;;
75851;SDS011;64500;52.632;20.656;2022-11-27T05:21:49;105.30;;;41.70;;
75851;SDS011;64500;52.632;20.656;2022-11-27T05:24:18;108.90;;;42.20;;
75851;SDS011;64500;52.632;20.656;2022-11-27T05:26:46;100.60;;;39.40;;
75851;SDS011;64500;52.632;20.656;2022-11-27T05:29:14;108.10;;;41.20;;
75851;SDS011;64500;52.632;20.656;2022-11-27T05:31:42;101.20;;;38.80;;
75851;SDS011;64500;52.632;20.656;2022-11-27T05:34:09;108.80;;;41.50;;
75851;SDS011;64500;52.632;20.656;2022-11-27T05:36:36;99.90;;;39.30;;
75851;SDS011;64500;52.632;20.656;2022-11-27T05:39:04;97.80;;;39.60;;
75851;SDS011;64500;52.632;20.656;2022-11-27T05:41:33;107.30;;;40.40;;
75851;SDS011;64500;52.632;20.656;2022-11-27T05:44:01;113.30;;;40.90;;
75851;SDS011;64500;52.632;20.656;2022-11-27T05:46:29;109.50;;;41.30;;
75851;SDS011;64500;52.632;20.656;2022-11-27T05:48:56;103.60;;;40.10;;
75851;SDS011;64500;52.632;20.656;2022-11-27T05:51:23;103.00;;;40.50;;
75851;SDS011;64500;52.632;20.656;2022-11-27T05:53:50;114.30;;;42.00;;
75851;SDS011;64500;52.632;20.656;2022-11-27T05:56:17;113.70;;;41.10;;
75851;SDS011;64500;52.632;20.656;2022-11-27T05:58:45;121.90;;;42.90;;
75851;SDS011;64500;52.632;20.656;2022-11-27T06:01:14;115.80;;;42.20;;
75851;SDS011;64500;52.632;20.656;2022-11-27T06:03:42;123.20;;;42.70;;
75851;SDS011;64500;52.632;20.656;2022-11-27T06:06:14;114.00;;;41.40;;
75851;SDS011;64500;52.632;20.656;2022-11-27T06:08:44;127.60;;;43.60;;
75851;SDS011;64500;52.632;20.656;2022-11-27T06:11:16;117.20;;;42.00;;
75851;SDS011;64500;52.632;20.656;2022-11-27T06:13:47;131.10;;;43.60;;
75851;SDS011;64500;52.632;20.656;2022-11-27T06:16:17;127.90;;;42.10;;
75851;SDS011;64500;52.632;20.656;2022-11-27T06:18:49;129.40;;;44.40;;
75851;SDS011;64500;52.632;20.656;2022-11-27T06:21:20;123.00;;;44.60;;
75851;SDS011;64500;52.632;20.656;2022-11-27T06:23:52;136.30;;;45.80;;
75851;SDS011;64500;52.632;20.656;2022-11-27T06:26:24;134.60;;;45.30;;
75851;SDS011;64500;52.632;20.656;2022-11-27T06:31:23;139.50;;;47.50;;
75851;SDS011;64500;52.632;20.656;2022-11-27T06:33:52;144.30;;;47.00;;
75851;SDS011;64500;52.632;20.656;2022-11-27T06:36:21;144.70;;;47.30;;
75851;SDS011;64500;52.632;20.656;2022-11-27T06:38:59;136.40;;;44.30;;
75851;SDS011;64500;52.632;20.656;2022-11-27T06:41:27;142.70;;;48.00;;
75851;SDS011;64500;52.632;20.656;2022-11-27T06:43:54;140.30;;;47.10;;
75851;SDS011;64500;52.632;20.656;2022-11-27T06:46:24;136.10;;;46.10;;
75851;SDS011;64500;52.632;20.656;2022-11-27T06:48:52;144.00;;;49.10;;
75851;SDS011;64500;52.632;20.656;2022-11-27T06:51:21;141.50;;;47.40;;
75851;SDS011;64500;52.632;20.656;2022-11-27T06:53:50;153.70;;;49.30;;
75851;SDS011;64500;52.632;20.656;2022-11-27T06:56:19;153.20;;;47.80;;
75851;SDS011;64500;52.632;20.656;2022-11-27T06:58:50;146.60;;;47.20;;
75851;SDS011;64500;52.632;20.656;2022-11-27T07:01:18;150.80;;;48.70;;
75851;SDS011;64500;52.632;20.656;2022-11-27T07:03:46;148.10;;;47.80;;
75851;SDS011;64500;52.632;20.656;2022-11-27T07:06:14;158.40;;;51.30;;
75851;SDS011;64500;52.632;20.656;2022-11-27T07:08:43;143.70;;;46.70;;
75851;SDS011;64500;52.632;20.656;2022-11-27T07:11:14;168.80;;;51.50;;
75851;SDS011;64500;52.632;20.656;2022-11-27T07:13:44;155.80;;;50.70;;
75851;SDS011;64500;52.632;20.656;2022-11-27T07:16:13;152.30;;;49.80;;
75851;SDS011;64500;52.632;20.656;2022-11-27T07:18:42;156.10;;;47.50;;
75851;SDS011;64500;52.632;20.656;2022-11-27T07:21:11;157.60;;;50.40;;
75851;SDS011;64500;52.632;20.656;2022-11-27T07:23:38;153.10;;;49.10;;
75851;SDS011;64500;52.632;20.656;2022-11-27T07:26:10;162.10;;;49.70;;
75851;SDS011;64500;52.632;20.656;2022-11-27T07:28:38;153.70;;;50.60;;
75851;SDS011;64500;52.632;20.656;2022-11-27T07:31:09;153.10;;;49.20;;
75851;SDS011;64500;52.632;20.656;2022-11-27T07:33:38;146.40;;;48.90;;
75851;SDS011;64500;52.632;20.656;2022-11-27T07:36:06;140.80;;;49.10;;
75851;SDS011;64500;52.632;20.656;2022-11-27T07:38:37;172.00;;;55.20;;
75851;SDS011;64500;52.632;20.656;2022-11-27T07:41:05;154.50;;;49.20;;
75851;SDS011;64500;52.632;20.656;2022-11-27T07:43:33;161.00;;;50.10;;
75851;SDS011;64500;52.632;20.656;2022-11-27T07:46:10;161.80;;;51.80;;
75851;SDS011;64500;52.632;20.656;2022-11-27T07:48:56;151.60;;;49.20;;
75851;SDS011;64500;52.632;20.656;2022-11-27T07:51:23;157.00;;;52.80;;
75851;SDS011;64500;52.632;20.656;2022-11-27T07:53:50;153.40;;;50.50;;
75851;SDS011;64500;52.632;20.656;2022-11-27T07:56:17;157.20;;;50.70;;
75851;SDS011;64500;52.632;20.656;2022-11-27T07:58:45;148.70;;;47.70;;
75851;SDS011;64500;52.632;20.656;2022-11-27T08:01:16;158.10;;;52.40;;
75851;SDS011;64500;52.632;20.656;2022-11-27T08:03:44;150.30;;;48.60;;
75851;SDS011;64500;52.632;20.656;2022-11-27T08:06:13;159.10;;;52.20;;
75851;SDS011;64500;52.632;20.656;2022-11-27T08:08:42;168.00;;;52.30;;
75851;SDS011;64500;52.632;20.656;2022-11-27T08:11:19;163.10;;;52.50;;
75851;SDS011;64500;52.632;20.656;2022-11-27T08:13:49;141.80;;;46.80;;
75851;SDS011;64500;52.632;20.656;2022-11-27T08:16:16;166.50;;;51.90;;
75851;SDS011;64500;52.632;20.656;2022-11-27T08:18:43;152.90;;;51.80;;
75851;SDS011;64500;52.632;20.656;2022-11-27T08:21:10;156.40;;;51.10;;
75851;SDS011;64500;52.632;20.656;2022-11-27T08:23:37;158.80;;;50.80;;
75851;SDS011;64500;52.632;20.656;2022-11-27T08:26:08;164.90;;;52.90;;
75851;SDS011;64500;52.632;20.656;2022-11-27T08:28:35;164.90;;;53.60;;
75851;SDS011;64500;52.632;20.656;2022-11-27T08:31:04;167.40;;;52.80;;
75851;SDS011;64500;52.632;20.656;2022-11-27T08:33:33;146.90;;;50.70;;
75851;SDS011;64500;52.632;20.656;2022-11-27T08:36:01;148.10;;;49.20;;
75851;SDS011;64500;52.632;20.656;2022-11-27T08:38:28;146.80;;;49.40;;
75851;SDS011;64500;52.632;20.656;2022-11-27T08:40:57;152.80;;;51.80;;
75851;SDS011;64500;52.632;20.656;2022-11-27T08:43:26;155.30;;;52.80;;
75851;SDS011;64500;52.632;20.656;2022-11-27T08:45:54;156.70;;;51.20;;
75851;SDS011;64500;52.632;20.656;2022-11-27T08:48:21;140.20;;;49.60;;
75851;SDS011;64500;52.632;20.656;2022-11-27T08:50:49;142.40;;;49.70;;
75851;SDS011;64500;52.632;20.656;2022-11-27T08:53:17;138.70;;;50.50;;
75851;SDS011;64500;52.632;20.656;2022-11-27T08:55:44;166.80;;;55.90;;
75851;SDS011;64500;52.632;20.656;2022-11-27T08:58:11;141.80;;;49.20;;
75851;SDS011;64500;52.632;20.656;2022-11-27T09:00:39;154.60;;;51.80;;
75851;SDS011;64500;52.632;20.656;2022-11-27T09:03:06;134.10;;;49.30;;
75851;SDS011;64500;52.632;20.656;2022-11-27T09:05:39;145.00;;;50.60;;
75851;SDS011;64500;52.632;20.656;2022-11-27T09:08:08;143.40;;;51.50;;
75851;SDS011;64500;52.632;20.656;2022-11-27T09:10:35;141.20;;;49.70;;
75851;SDS011;64500;52.632;20.656;2022-11-27T09:13:02;131.60;;;47.10;;
75851;SDS011;64500;52.632;20.656;2022-11-27T09:15:29;141.00;;;51.90;;
75851;SDS011;64500;52.632;20.656;2022-11-27T09:17:56;135.40;;;49.10;;
75851;SDS011;64500;52.632;20.656;2022-11-27T09:20:23;143.60;;;50.90;;
75851;SDS011;64500;52.632;20.656;2022-11-27T09:22:50;129.20;;;48.30;;
75851;SDS011;64500;52.632;20.656;2022-11-27T09:25:17;139.00;;;50.50;;
75851;SDS011;64500;52.632;20.656;2022-11-27T09:27:43;138.70;;;49.10;;
75851;SDS011;64500;52.632;20.656;2022-11-27T09:30:11;141.40;;;50.30;;
75851;SDS011;64500;52.632;20.656;2022-11-27T09:32:38;133.10;;;49.70;;
75851;SDS011;64500;52.632;20.656;2022-11-27T09:35:05;142.00;;;47.90;;
75851;SDS011;64500;52.632;20.656;2022-11-27T09:37:32;134.60;;;46.80;;
75851;SDS011;64500;52.632;20.656;2022-11-27T09:39:59;146.70;;;51.00;;
75851;SDS011;64500;52.632;20.656;2022-11-27T09:42:49;146.60;;;51.40;;
75851;SDS011;64500;52.632;20.656;2022-11-27T09:45:21;146.80;;;51.70;;
75851;SDS011;64500;52.632;20.656;2022-11-27T09:47:57;140.70;;;51.00;;
75851;SDS011;64500;52.632;20.656;2022-11-27T09:50:30;149.80;;;51.60;;
75851;SDS011;64500;52.632;20.656;2022-11-27T09:53:03;143.30;;;50.30;;
75851;SDS011;64500;52.632;20.656;2022-11-27T09:55:39;148.30;;;49.50;;
75851;SDS011;64500;52.632;20.656;2022-11-27T09:58:14;161.80;;;54.70;;
75851;SDS011;64500;52.632;20.656;2022-11-27T10:00:42;141.00;;;52.30;;
75851;SDS011;64500;52.632;20.656;2022-11-27T10:03:14;149.20;;;50.00;;
75851;SDS011;64500;52.632;20.656;2022-11-27T10:16:47;148.70;;;52.90;;
75851;SDS011;64500;52.632;20.656;2022-11-27T10:22:12;151.50;;;52.70;;
75851;SDS011;64500;52.632;20.656;2022-11-27T10:27:26;135.10;;;51.30;;
75851;SDS011;64500;52.632;20.656;2022-11-27T10:30:00;146.40;;;53.10;;
75851;SDS011;64500;52.632;20.656;2022-11-27T10:32:30;145.40;;;51.30;;
75851;SDS011;64500;52.632;20.656;2022-11-27T10:37:35;139.90;;;51.50;;
75851;SDS011;64500;52.632;20.656;2022-11-27T10:48:50;144.20;;;53.70;;
75851;SDS011;64500;52.632;20.656;2022-11-27T10:51:18;127.20;;;49.20;;
75851;SDS011;64500;52.632;20.656;2022-11-27T10:53:50;132.70;;;53.20;;
75851;SDS011;64500;52.632;20.656;2022-11-27T10:59:18;134.70;;;51.60;;
75851;SDS011;64500;52.632;20.656;2022-11-27T11:01:52;134.30;;;49.80;;
75851;SDS011;64500;52.632;20.656;2022-11-27T11:04:20;134.00;;;51.00;;
75851;SDS011;64500;52.632;20.656;2022-11-27T11:06:51;137.90;;;52.20;;
75851;SDS011;64500;52.632;20.656;2022-11-27T11:09:20;130.60;;;48.80;;
75851;SDS011;64500;52.632;20.656;2022-11-27T11:12:28;121.80;;;49.10;;
75851;SDS011;64500;52.632;20.656;2022-11-27T11:14:49;119.40;;;49.00;;
75851;SDS011;64500;52.632;20.656;2022-11-27T11:17:24;129.50;;;50.60;;
75851;SDS011;64500;52.632;20.656;2022-11-27T11:19:53;117.80;;;49.30;;
75851;SDS011;64500;52.632;20.656;2022-11-27T11:22:20;131.90;;;48.40;;
75851;SDS011;64500;52.632;20.656;2022-11-27T11:24:48;116.90;;;49.40;;
75851;SDS011;64500;52.632;20.656;2022-11-27T11:27:26;116.40;;;49.20;;
75851;SDS011;64500;52.632;20.656;2022-11-27T11:30:03;125.20;;;48.30;;
75851;SDS011;64500;52.632;20.656;2022-11-27T11:32:32;114.80;;;46.70;;
75851;SDS011;64500;52.632;20.656;2022-11-27T11:35:03;110.10;;;47.40;;
75851;SDS011;64500;52.632;20.656;2022-11-27T11:37:38;118.10;;;48.10;;
75851;SDS011;64500;52.632;20.656;2022-11-27T11:45:24;120.90;;;48.60;;
75851;SDS011;64500;52.632;20.656;2022-11-27T11:47:54;109.40;;;46.90;;
75851;SDS011;64500;52.632;20.656;2022-11-27T11:50:32;110.60;;;46.80;;
75851;SDS011;64500;52.632;20.656;2022-11-27T11:53:11;104.40;;;46.40;;
75851;SDS011;64500;52.632;20.656;2022-11-27T11:58:56;110.80;;;47.30;;
75851;SDS011;64500;52.632;20.656;2022-11-27T12:13:10;107.30;;;46.90;;
75851;SDS011;64500;52.632;20.656;2022-11-27T12:16:05;109.70;;;47.50;;
75851;SDS011;64500;52.632;20.656;2022-11-27T12:19:09;106.80;;;47.10;;
75851;SDS011;64500;52.632;20.656;2022-11-27T12:21:56;104.00;;;44.40;;
75851;SDS011;64500;52.632;20.656;2022-11-27T12:30:19;106.10;;;45.80;;
75851;SDS011;64500;52.632;20.656;2022-11-27T12:35:50;103.80;;;45.40;;
75851;SDS011;64500;52.632;20.656;2022-11-27T12:44:49;103.70;;;44.30;;
75851;SDS011;64500;52.632;20.656;2022-11-27T12:50:20;96.40;;;44.30;;
75851;SDS011;64500;52.632;20.656;2022-11-27T13:01:54;94.40;;;41.10;;
75851;SDS011;64500;52.632;20.656;2022-11-27T13:04:56;98.30;;;43.20;;
75851;SDS011;64500;52.632;20.656;2022-11-27T13:21:10;87.10;;;40.10;;
75851;SDS011;64500;52.632;20.656;2022-11-27T13:23:40;88.30;;;41.00;;
75851;SDS011;64500;52.632;20.656;2022-11-27T13:26:11;86.00;;;37.80;;
75851;SDS011;64500;52.632;20.656;2022-11-27T13:28:46;87.90;;;40.50;;
75851;SDS011;64500;52.632;20.656;2022-11-27T13:31:23;88.20;;;39.40;;
75851;SDS011;64500;52.632;20.656;2022-11-27T13:33:56;84.90;;;38.70;;
75851;SDS011;64500;52.632;20.656;2022-11-27T13:36:29;80.40;;;37.70;;
75851;SDS011;64500;52.632;20.656;2022-11-27T13:39:20;85.20;;;38.80;;
75851;SDS011;64500;52.632;20.656;2022-11-27T13:41:57;83.00;;;39.10;;
75851;SDS011;64500;52.632;20.656;2022-11-27T13:44:27;75.80;;;36.10;;
75851;SDS011;64500;52.632;20.656;2022-11-27T13:46:57;84.10;;;38.20;;
75851;SDS011;64500;52.632;20.656;2022-11-27T13:49:31;80.40;;;37.90;;
75851;SDS011;64500;52.632;20.656;2022-11-27T13:52:18;82.10;;;39.40;;
75851;SDS011;64500;52.632;20.656;2022-11-27T13:59:57;73.90;;;33.60;;
75851;SDS011;64500;52.632;20.656;2022-11-27T14:02:45;75.40;;;36.20;;
75851;SDS011;64500;52.632;20.656;2022-11-27T14:05:19;86.80;;;38.00;;
75851;SDS011;64500;52.632;20.656;2022-11-27T14:07:48;83.80;;;38.80;;
75851;SDS011;64500;52.632;20.656;2022-11-27T14:10:22;81.50;;;39.00;;
75851;SDS011;64500;52.632;20.656;2022-11-27T14:12:56;79.90;;;37.60;;
75851;SDS011;64500;52.632;20.656;2022-11-27T14:15:27;80.00;;;38.10;;
75851;SDS011;64500;52.632;20.656;2022-11-27T14:18:30;80.70;;;37.10;;
75851;SDS011;64500;52.632;20.656;2022-11-27T14:21:00;85.90;;;39.80;;
75851;SDS011;64500;52.632;20.656;2022-11-27T14:23:32;85.20;;;39.40;;
75851;SDS011;64500;52.632;20.656;2022-11-27T14:28:39;86.80;;;38.80;;
75851;SDS011;64500;52.632;20.656;2022-11-27T14:31:25;76.00;;;37.10;;
75851;SDS011;64500;52.632;20.656;2022-11-27T14:33:55;79.60;;;37.60;;
75851;SDS011;64500;52.632;20.656;2022-11-27T14:36:23;77.40;;;35.60;;
75851;SDS011;64500;52.632;20.656;2022-11-27T14:38:57;82.60;;;38.10;;
75851;SDS011;64500;52.632;20.656;2022-11-27T14:41:25;83.80;;;38.50;;
75851;SDS011;64500;52.632;20.656;2022-11-27T14:44:04;77.30;;;36.00;;
75851;SDS011;64500;52.632;20.656;2022-11-27T14:46:33;79.30;;;37.00;;
75851;SDS011;64500;52.632;20.656;2022-11-27T14:49:02;76.60;;;35.90;;
75851;SDS011;64500;52.632;20.656;2022-11-27T14:51:30;74.00;;;36.10;;
75851;SDS011;64500;52.632;20.656;2022-11-27T14:54:01;74.70;;;36.40;;
75851;SDS011;64500;52.632;20.656;2022-11-27T14:59:02;75.50;;;37.10;;
75851;SDS011;64500;52.632;20.656;2022-11-27T15:01:30;77.70;;;36.80;;
75851;SDS011;64500;52.632;20.656;2022-11-27T15:04:00;81.30;;;38.10;;
75851;SDS011;64500;52.632;20.656;2022-11-27T15:06:42;81.90;;;37.60;;
75851;SDS011;64500;52.632;20.656;2022-11-27T15:09:18;75.90;;;35.70;;
75851;SDS011;64500;52.632;20.656;2022-11-27T15:11:54;75.30;;;35.60;;
75851;SDS011;64500;52.632;20.656;2022-11-27T15:14:27;72.40;;;34.90;;
75851;SDS011;64500;52.632;20.656;2022-11-27T15:16:56;81.50;;;38.60;;
75851;SDS011;64500;52.632;20.656;2022-11-27T15:19:31;76.30;;;37.10;;
75851;SDS011;64500;52.632;20.656;2022-11-27T15:22:01;76.20;;;37.60;;
75851;SDS011;64500;52.632;20.656;2022-11-27T15:24:33;79.00;;;38.50;;
75851;SDS011;64500;52.632;20.656;2022-11-27T15:27:16;86.60;;;39.60;;
75851;SDS011;64500;52.632;20.656;2022-11-27T15:32:18;85.30;;;39.20;;
75851;SDS011;64500;52.632;20.656;2022-11-27T15:34:47;75.60;;;36.60;;
75851;SDS011;64500;52.632;20.656;2022-11-27T15:37:21;77.30;;;36.70;;
75851;SDS011;64500;52.632;20.656;2022-11-27T15:39:58;75.20;;;36.10;;
75851;SDS011;64500;52.632;20.656;2022-11-27T15:42:27;76.30;;;36.40;;
75851;SDS011;64500;52.632;20.656;2022-11-27T15:44:55;76.90;;;38.40;;
75851;SDS011;64500;52.632;20.656;2022-11-27T15:47:33;81.80;;;38.50;;
75851;SDS011;64500;52.632;20.656;2022-11-27T15:50:03;84.40;;;39.00;;
75851;SDS011;64500;52.632;20.656;2022-11-27T15:52:31;82.00;;;37.80;;
75851;SDS011;64500;52.632;20.656;2022-11-27T15:54:58;74.20;;;36.10;;
75851;SDS011;64500;52.632;20.656;2022-11-27T15:57:25;79.90;;;37.50;;
75851;SDS011;64500;52.632;20.656;2022-11-27T15:59:52;81.10;;;37.70;;
75851;SDS011;64500;52.632;20.656;2022-11-27T16:02:19;78.80;;;39.50;;
75851;SDS011;64500;52.632;20.656;2022-11-27T16:04:47;84.80;;;39.00;;
75851;SDS011;64500;52.632;20.656;2022-11-27T16:07:15;80.50;;;38.20;;
75851;SDS011;64500;52.632;20.656;2022-11-27T16:09:42;86.40;;;39.10;;
75851;SDS011;64500;52.632;20.656;2022-11-27T16:12:12;84.60;;;39.80;;
75851;SDS011;64500;52.632;20.656;2022-11-27T16:14:39;83.70;;;38.90;;
75851;SDS011;64500;52.632;20.656;2022-11-27T16:17:06;76.00;;;36.70;;
75851;SDS011;64500;52.632;20.656;2022-11-27T16:19:33;84.30;;;38.90;;
75851;SDS011;64500;52.632;20.656;2022-11-27T16:22:01;83.40;;;40.70;;
75851;SDS011;64500;52.632;20.656;2022-11-27T16:24:28;79.90;;;40.20;;
75851;SDS011;64500;52.632;20.656;2022-11-27T16:26:55;84.20;;;40.00;;
75851;SDS011;64500;52.632;20.656;2022-11-27T16:29:22;76.90;;;38.80;;
75851;SDS011;64500;52.632;20.656;2022-11-27T16:31:49;80.70;;;40.40;;
75851;SDS011;64500;52.632;20.656;2022-11-27T16:34:16;84.10;;;41.20;;
75851;SDS011;64500;52.632;20.656;2022-11-27T16:36:43;87.00;;;40.90;;
75851;SDS011;64500;52.632;20.656;2022-11-27T16:39:11;86.10;;;41.20;;
75851;SDS011;64500;52.632;20.656;2022-11-27T16:41:38;82.00;;;40.40;;